createdAt,value
2022-11-16T00:01:30.541Z,4.10
2022-11-16T00:03:59.769Z,4.30
2022-11-16T00:06:27.888Z,3.83
2022-11-16T00:09:19.651Z,4.30
2022-11-16T00:11:52.721Z,4.30
2022-11-16T00:14:21.246Z,3.88
2022-11-16T00:16:48.259Z,4.75
2022-11-16T00:19:15.187Z,4.25
2022-11-16T00:21:42.385Z,3.55
2022-11-16T00:24:16.035Z,4.25
2022-11-16T00:26:43.257Z,4.30
2022-11-16T00:29:15.745Z,3.92
2022-11-16T00:31:44.552Z,3.92
2022-11-16T00:34:11.419Z,4.40
2022-11-16T00:36:38.281Z,4.43
2022-11-16T00:39:05.391Z,4.38
2022-11-16T00:41:32.169Z,3.88
2022-11-16T00:43:58.979Z,4.25
2022-11-16T00:46:25.772Z,4.00
2022-11-16T00:48:52.586Z,4.47
2022-11-16T00:51:25.442Z,4.70
2022-11-16T00:53:52.215Z,4.70
2022-11-16T00:56:19.015Z,4.78
2022-11-16T00:58:45.825Z,4.30
2022-11-16T01:01:13.049Z,4.63
2022-11-16T01:03:40.104Z,5.10
2022-11-16T01:06:10.717Z,4.30
2022-11-16T01:08:39.436Z,4.50
2022-11-16T01:11:26.815Z,5.10
2022-11-16T01:13:54.669Z,4.93
2022-11-16T01:16:23.643Z,5.10
2022-11-16T01:18:53.616Z,5.20
2022-11-16T01:21:21.844Z,5.07
2022-11-16T01:23:48.810Z,5.43
2022-11-16T01:26:15.649Z,4.68
2022-11-16T01:28:42.420Z,5.50
2022-11-16T01:31:10.367Z,5.10
2022-11-16T01:33:38.005Z,5.95
2022-11-16T01:36:14.548Z,5.68
2022-11-16T01:38:46.318Z,5.15
2022-11-16T01:41:23.937Z,6.18
2022-11-16T01:43:59.874Z,5.10
2022-11-16T01:46:28.231Z,5.88
2022-11-16T01:49:04.527Z,4.75
2022-11-16T01:51:32.764Z,5.50
2022-11-16T01:54:01.845Z,6.15
2022-11-16T01:56:31.683Z,6.00
2022-11-16T01:58:58.653Z,6.15
2022-11-16T02:01:25.490Z,6.05
2022-11-16T02:03:52.313Z,6.05
2022-11-16T02:06:32.414Z,5.55
2022-11-16T02:09:59.381Z,6.28
2022-11-16T02:12:49.001Z,6.72
2022-11-16T02:15:30.201Z,6.28
2022-11-16T02:18:44.097Z,6.78
2022-11-16T02:21:36.293Z,6.68
2022-11-16T02:24:42.547Z,6.72
2022-11-16T02:28:11.432Z,6.88
2022-11-16T02:30:44.789Z,6.90
2022-11-16T02:33:21.192Z,7.30
2022-11-16T02:35:52.676Z,7.53
2022-11-16T02:38:31.993Z,6.97
2022-11-16T02:41:06.485Z,7.20
2022-11-16T02:43:42.856Z,8.18
2022-11-16T02:46:18.851Z,8.38
2022-11-16T02:48:50.527Z,8.27
2022-11-16T02:51:19.482Z,8.48
2022-11-16T02:54:12.738Z,8.82
2022-11-16T02:57:04.726Z,7.40
2022-11-16T02:59:49.013Z,7.63
2022-11-16T03:02:25.497Z,8.48
2022-11-16T03:05:31.821Z,8.50
2022-11-16T03:08:33.996Z,8.65
2022-11-16T03:11:25.377Z,8.23
2022-11-16T03:14:00.015Z,8.60
2022-11-16T03:16:32.502Z,10.07
2022-11-16T03:19:03.241Z,8.85
2022-11-16T03:21:50.588Z,8.98
2022-11-16T03:24:17.620Z,8.15
2022-11-16T03:27:18.314Z,8.18
2022-11-16T03:30:06.042Z,9.35
2022-11-16T03:32:55.081Z,9.13
2022-11-16T03:35:24.806Z,9.65
2022-11-16T03:37:55.478Z,9.10
2022-11-16T03:40:24.627Z,9.73
2022-11-16T03:42:52.167Z,9.63
2022-11-16T03:45:19.966Z,9.95
2022-11-16T03:47:46.862Z,11.02
2022-11-16T03:50:13.751Z,10.65
2022-11-16T03:52:41.289Z,9.45
2022-11-16T03:55:08.608Z,9.70
2022-11-16T03:57:35.359Z,11.20
2022-11-16T04:00:02.467Z,11.20
2022-11-16T04:02:29.256Z,11.50
2022-11-16T04:05:14.420Z,10.90
2022-11-16T04:07:59.729Z,10.98
2022-11-16T04:10:44.787Z,11.20
2022-11-16T04:13:32.277Z,10.45
2022-11-16T04:16:17.904Z,10.38
2022-11-16T04:19:03.075Z,12.57
2022-11-16T04:22:02.779Z,11.15
2022-11-16T04:24:35.949Z,11.20
2022-11-16T04:27:25.888Z,11.27
2022-11-16T04:29:54.220Z,11.18
2022-11-16T04:32:39.359Z,11.70
2022-11-16T04:35:24.565Z,10.73
2022-11-16T04:37:53.240Z,11.20
2022-11-16T04:40:26.352Z,11.15
2022-11-16T04:43:01.303Z,11.93
2022-11-16T04:45:47.025Z,11.32
2022-11-16T04:48:15.914Z,11.60
2022-11-16T04:50:43.657Z,11.20
2022-11-16T04:53:10.877Z,11.35
2022-11-16T04:55:37.824Z,11.90
2022-11-16T04:58:05.381Z,11.25
2022-11-16T05:00:32.733Z,11.75
2022-11-16T05:03:01.588Z,12.50
2022-11-16T05:05:28.792Z,12.00
2022-11-16T05:07:55.613Z,11.98
2022-11-16T05:10:22.500Z,12.70
2022-11-16T05:12:49.240Z,11.13
2022-11-16T05:15:17.607Z,11.88
2022-11-16T05:17:44.450Z,12.23
2022-11-16T05:20:30.214Z,11.98
2022-11-16T05:22:58.260Z,11.73
2022-11-16T05:25:25.487Z,12.48
2022-11-16T05:27:52.270Z,12.10
2022-11-16T05:30:19.124Z,11.90
2022-11-16T05:32:46.157Z,11.55
2022-11-16T05:35:12.914Z,12.70
2022-11-16T05:37:39.745Z,12.00
2022-11-16T05:40:07.469Z,12.75
2022-11-16T05:42:34.431Z,13.80
2022-11-16T05:45:01.268Z,13.05
2022-11-16T05:47:28.177Z,12.77
2022-11-16T05:49:54.938Z,13.80
2022-11-16T05:52:21.709Z,13.88
2022-11-16T05:54:48.477Z,15.18
2022-11-16T05:57:15.367Z,14.10
2022-11-16T05:59:42.529Z,14.60
2022-11-16T06:02:09.288Z,15.48
2022-11-16T06:04:36.044Z,13.48
2022-11-16T06:07:02.915Z,13.63
2022-11-16T06:09:29.772Z,14.95
2022-11-16T06:11:56.552Z,14.48
2022-11-16T06:14:23.515Z,15.45
2022-11-16T06:16:50.277Z,15.98
2022-11-16T06:19:17.037Z,14.27
2022-11-16T06:21:43.801Z,14.95
2022-11-16T06:24:10.611Z,15.45
2022-11-16T06:26:37.452Z,15.35
2022-11-16T06:29:04.797Z,15.30
2022-11-16T06:31:31.682Z,16.48
2022-11-16T06:33:58.515Z,15.57
2022-11-16T06:36:25.309Z,16.63
2022-11-16T06:38:52.139Z,15.32
2022-11-16T06:41:19.348Z,15.90
2022-11-16T06:43:46.294Z,15.88
2022-11-16T06:46:13.269Z,16.10
2022-11-16T06:48:40.080Z,15.98
2022-11-16T06:51:06.923Z,16.00
2022-11-16T06:53:34.185Z,17.02
2022-11-16T06:56:05.644Z,15.85
2022-11-16T06:58:33.380Z,16.70
2022-11-16T07:01:11.845Z,16.70
2022-11-16T07:03:39.104Z,15.65
2022-11-16T07:06:11.119Z,16.73
2022-11-16T07:08:38.548Z,16.65
2022-11-16T07:11:07.550Z,16.77
2022-11-16T07:13:36.243Z,17.08
2022-11-16T07:16:08.579Z,16.38
2022-11-16T07:18:37.643Z,17.35
2022-11-16T07:21:08.659Z,15.45
2022-11-16T07:23:36.520Z,15.75
2022-11-16T07:26:05.809Z,16.42
2022-11-16T07:28:33.589Z,16.65
2022-11-16T07:31:06.422Z,16.25
2022-11-16T07:33:34.024Z,16.45
2022-11-16T07:36:10.403Z,16.42
2022-11-16T07:38:37.398Z,17.25
2022-11-16T07:41:11.232Z,15.82
2022-11-16T07:43:38.075Z,16.92
2022-11-16T07:46:45.959Z,16.05
2022-11-16T07:49:00.407Z,16.55
2022-11-16T07:51:27.264Z,15.57
2022-11-16T07:53:55.902Z,15.88
2022-11-16T07:56:22.985Z,15.25
2022-11-16T07:58:49.767Z,17.15
2022-11-16T08:01:18.578Z,15.32
2022-11-16T08:03:46.313Z,16.73
2022-11-16T08:06:26.751Z,14.77
2022-11-16T08:08:57.975Z,15.85
2022-11-16T08:11:26.135Z,16.77
2022-11-16T08:13:53.038Z,15.73
2022-11-16T08:16:22.298Z,15.82
2022-11-16T08:18:49.193Z,16.17
2022-11-16T08:21:17.873Z,17.27
2022-11-16T08:23:45.254Z,16.08
2022-11-16T08:26:18.775Z,16.85
2022-11-16T08:28:48.056Z,17.23
2022-11-16T08:31:21.530Z,15.52
2022-11-16T08:33:48.304Z,15.32
2022-11-16T08:36:17.643Z,16.20
2022-11-16T08:38:49.734Z,16.35
2022-11-16T08:41:17.855Z,16.13
2022-11-16T08:43:46.989Z,17.10
2022-11-16T08:46:14.085Z,16.40
2022-11-16T08:48:41.263Z,16.38
2022-11-16T08:51:20.590Z,16.83
2022-11-16T08:53:49.308Z,17.02
2022-11-16T08:56:18.402Z,16.67
2022-11-16T08:58:51.374Z,17.55
2022-11-16T09:01:23.981Z,17.83
2022-11-16T09:03:52.185Z,17.83
2022-11-16T09:06:19.216Z,17.73
2022-11-16T09:08:46.891Z,17.42
2022-11-16T09:11:18.316Z,17.45
2022-11-16T09:13:47.834Z,17.05
2022-11-16T09:16:16.564Z,18.60
2022-11-16T09:18:45.548Z,17.27
2022-11-16T09:21:16.116Z,17.40
2022-11-16T09:23:42.862Z,18.80
2022-11-16T09:26:09.659Z,18.60
2022-11-16T09:28:36.749Z,18.52
2022-11-16T09:31:05.889Z,18.90
2022-11-16T09:33:34.307Z,19.30
2022-11-16T09:36:07.841Z,19.63
2022-11-16T09:42:15.728Z,18.85
2022-11-16T09:45:04.554Z,18.77
2022-11-16T09:47:40.840Z,19.02
2022-11-16T09:50:39.289Z,19.08
2022-11-16T09:53:53.028Z,18.42
2022-11-16T09:56:23.968Z,17.67
2022-11-16T09:59:02.873Z,17.42
2022-11-16T10:01:48.803Z,17.02
2022-11-16T10:04:29.133Z,17.33
2022-11-16T10:07:22.650Z,16.13
2022-11-16T10:09:49.863Z,16.40
2022-11-16T10:12:35.524Z,16.35
2022-11-16T10:15:06.611Z,15.98
2022-11-16T10:18:02.422Z,17.38
2022-11-16T10:21:12.883Z,16.88
2022-11-16T10:23:57.532Z,17.02
2022-11-16T10:29:35.112Z,15.77
2022-11-16T10:32:29.721Z,16.60
2022-11-16T10:35:09.091Z,17.30
2022-11-16T10:37:41.360Z,16.48
2022-11-16T10:40:23.145Z,17.48
2022-11-16T10:43:00.382Z,17.42
2022-11-16T10:45:45.992Z,17.08
2022-11-16T10:48:58.413Z,17.90
2022-11-16T10:51:25.209Z,16.80
2022-11-16T10:53:53.090Z,16.75
2022-11-16T10:56:28.751Z,17.92
2022-11-16T10:59:02.172Z,17.23
2022-11-16T11:01:37.658Z,15.00
2022-11-16T11:04:18.564Z,18.02
2022-11-16T11:06:48.887Z,17.33
2022-11-16T11:09:28.738Z,16.70
2022-11-16T11:12:22.629Z,18.05
2022-11-16T11:15:26.335Z,17.40
2022-11-16T11:18:15.498Z,19.13
2022-11-16T11:20:46.900Z,20.20
2022-11-16T11:23:22.134Z,18.60
2022-11-16T11:25:57.787Z,18.80
2022-11-16T11:28:31.661Z,19.63
2022-11-16T11:31:25.953Z,16.60
2022-11-16T11:33:57.713Z,19.70
2022-11-16T11:36:34.088Z,19.38
2022-11-16T11:39:21.101Z,19.83
2022-11-16T11:42:19.627Z,18.20
2022-11-16T11:44:57.520Z,18.48
2022-11-16T11:48:05.104Z,17.90
2022-11-16T11:50:44.785Z,18.35
2022-11-16T11:53:38.948Z,18.17
2022-11-16T11:56:06.633Z,17.50
2022-11-16T11:58:37.342Z,17.63
2022-11-16T12:01:25.639Z,16.17
2022-11-16T12:04:22.145Z,15.13
2022-11-16T12:07:03.617Z,16.40
2022-11-16T12:09:53.199Z,15.43
2022-11-16T12:12:56.701Z,15.35
2022-11-16T12:15:35.731Z,16.65
2022-11-16T12:18:14.157Z,15.82
2022-11-16T12:21:00.102Z,15.10
2022-11-16T12:24:03.919Z,15.30
2022-11-16T12:27:00.439Z,14.70
2022-11-16T12:29:40.438Z,14.80
2022-11-16T12:33:02.057Z,14.90
2022-11-16T12:36:36.387Z,14.23
2022-11-16T12:39:28.908Z,14.40
2022-11-16T12:42:34.741Z,15.43
2022-11-16T12:45:34.037Z,14.25
2022-11-16T12:48:31.995Z,15.13
2022-11-16T12:51:11.600Z,15.20
2022-11-16T12:54:06.161Z,14.32
2022-11-16T12:56:48.667Z,14.55
2022-11-16T12:59:49.045Z,16.67
2022-11-16T13:03:16.763Z,15.30
2022-11-16T13:05:53.770Z,14.60
2022-11-16T13:08:49.206Z,14.38
2022-11-16T13:11:21.907Z,15.77
2022-11-16T13:13:56.062Z,16.08
2022-11-16T13:16:24.700Z,15.20
2022-11-16T13:18:53.919Z,14.52
2022-11-16T13:21:47.904Z,14.63
2022-11-16T13:24:54.619Z,15.27
2022-11-16T13:27:49.871Z,14.55
2022-11-16T13:30:26.013Z,14.02
2022-11-16T13:33:13.809Z,15.52
2022-11-16T13:35:40.560Z,14.85
2022-11-16T13:38:13.724Z,15.07
2022-11-16T13:40:41.256Z,15.07
2022-11-16T13:43:10.934Z,15.20
2022-11-16T13:45:49.520Z,15.77
2022-11-16T13:48:21.557Z,15.45
2022-11-16T13:50:56.039Z,15.23
2022-11-16T13:56:15.937Z,14.85
2022-11-16T13:59:00.929Z,14.48
2022-11-16T14:02:28.376Z,15.98
2022-11-16T14:05:01.974Z,14.07
2022-11-16T14:07:46.371Z,15.27
2022-11-16T14:10:33.262Z,14.98
2022-11-16T14:13:05.128Z,15.40
2022-11-16T14:15:34.032Z,15.68
2022-11-16T14:18:32.117Z,14.30
2022-11-16T14:21:08.442Z,14.82
2022-11-16T14:24:02.851Z,13.85
2022-11-16T14:27:09.963Z,9.23
2022-11-16T14:30:09.932Z,13.68
2022-11-16T14:32:45.961Z,13.95
2022-11-16T14:35:40.257Z,13.55
2022-11-16T14:38:21.927Z,14.35
2022-11-16T14:40:57.783Z,13.90
2022-11-16T14:43:54.869Z,14.38
2022-11-16T14:46:35.656Z,14.48
2022-11-16T14:49:03.032Z,13.27
2022-11-16T14:51:34.964Z,13.52
2022-11-16T14:54:39.112Z,13.52
2022-11-16T14:57:13.628Z,13.43
2022-11-16T14:59:40.378Z,13.93
2022-11-16T15:02:27.160Z,14.35
2022-11-16T15:04:54.664Z,13.70
2022-11-16T15:07:26.248Z,13.65
2022-11-16T15:09:56.585Z,14.85
2022-11-16T15:12:42.245Z,15.20
2022-11-16T15:15:11.762Z,13.45
2022-11-16T15:17:42.162Z,14.88
2022-11-16T15:20:22.105Z,14.00
2022-11-16T15:22:55.329Z,14.82
2022-11-16T15:25:30.499Z,14.88
2022-11-16T15:28:20.026Z,15.00
2022-11-16T15:30:51.054Z,14.48
2022-11-16T15:33:33.571Z,17.77
2022-11-16T15:36:00.650Z,15.50
2022-11-16T15:38:32.769Z,14.98
2022-11-16T15:41:04.841Z,19.27
2022-11-16T15:43:45.211Z,16.90
2022-11-16T15:46:17.760Z,15.65
2022-11-16T15:48:45.534Z,16.35
2022-11-16T15:51:24.260Z,16.33
2022-11-16T15:53:54.361Z,14.60
2022-11-16T15:56:27.082Z,16.60
2022-11-16T15:59:02.466Z,15.88
2022-11-16T16:01:30.424Z,15.73
2022-11-16T16:04:05.017Z,15.38
2022-11-16T16:06:53.228Z,16.67
2022-11-16T16:09:39.680Z,13.73
2022-11-16T16:12:23.604Z,14.45
2022-11-16T16:14:52.375Z,10.73
2022-11-16T16:17:30.565Z,13.43
2022-11-16T16:20:04.047Z,24.42
2022-11-16T16:22:34.527Z,47.78
2022-11-16T16:25:01.962Z,42.13
2022-11-16T16:27:31.620Z,24.67
2022-11-16T16:30:05.352Z,17.65
2022-11-16T16:32:37.722Z,13.40
2022-11-16T16:35:08.424Z,13.48
2022-11-16T16:37:35.988Z,11.65
2022-11-16T16:40:03.480Z,10.85
2022-11-16T16:42:30.287Z,11.63
2022-11-16T16:44:59.929Z,10.95
2022-11-16T16:47:26.706Z,11.25
2022-11-16T16:49:53.604Z,10.43
2022-11-16T16:52:20.405Z,11.50
2022-11-16T16:54:47.207Z,11.23
2022-11-16T16:57:15.774Z,11.18
2022-11-16T16:59:45.287Z,11.25
2022-11-16T17:02:14.896Z,10.65
2022-11-16T17:04:43.870Z,9.20
2022-11-16T17:07:10.766Z,9.52
2022-11-16T17:09:37.543Z,9.02
2022-11-16T17:12:04.554Z,10.32
2022-11-16T17:14:31.327Z,9.18
2022-11-16T17:16:58.136Z,9.60
2022-11-16T17:19:25.039Z,9.02
2022-11-16T17:21:52.340Z,9.68
2022-11-16T17:24:19.303Z,9.80
2022-11-16T17:26:48.583Z,9.90
2022-11-16T17:29:15.474Z,9.02
2022-11-16T17:31:44.070Z,8.90
2022-11-16T17:34:13.699Z,8.82
2022-11-16T17:36:41.938Z,8.00
2022-11-16T17:39:09.000Z,7.25
2022-11-16T17:41:35.906Z,8.30
2022-11-16T17:44:03.701Z,7.97
2022-11-16T17:46:30.473Z,6.40
2022-11-16T17:48:57.310Z,6.95
2022-11-16T17:51:25.227Z,7.50
2022-11-16T17:53:52.510Z,7.35
2022-11-16T17:56:23.200Z,6.97
2022-11-16T17:58:51.530Z,7.03
2022-11-16T18:01:19.198Z,6.50
2022-11-16T18:03:46.076Z,6.30
2022-11-16T18:06:19.463Z,6.25
2022-11-16T18:08:46.693Z,6.30
2022-11-16T18:11:19.917Z,6.20
2022-11-16T18:13:47.635Z,6.40
2022-11-16T18:16:17.783Z,5.57
2022-11-16T18:18:46.721Z,6.43
2022-11-16T18:21:20.466Z,6.03
2022-11-16T18:26:17.668Z,5.18
2022-11-16T18:28:48.667Z,5.78
2022-11-16T18:31:18.114Z,6.15
2022-11-16T18:33:45.307Z,5.25
2022-11-16T18:36:12.872Z,5.75
2022-11-16T18:38:39.697Z,5.50
2022-11-16T18:41:16.616Z,5.95
2022-11-16T18:43:59.675Z,5.93
2022-11-16T18:46:29.398Z,5.57
2022-11-16T18:48:57.088Z,5.63
2022-11-16T18:51:26.950Z,5.47
2022-11-16T18:53:54.112Z,5.75
2022-11-16T18:56:21.095Z,5.80
2022-11-16T18:58:51.000Z,5.53
2022-11-16T19:01:25.506Z,5.75
2022-11-16T19:03:54.649Z,6.38
2022-11-16T19:06:23.025Z,6.25
2022-11-16T19:09:06.187Z,6.43
2022-11-16T19:11:32.967Z,5.28
2022-11-16T19:14:07.582Z,5.63
2022-11-16T19:16:34.589Z,5.22
2022-11-16T19:19:01.502Z,5.28
2022-11-16T19:21:28.624Z,4.90
2022-11-16T19:23:57.021Z,4.57
2022-11-16T19:26:27.121Z,4.45
2022-11-16T19:28:54.611Z,4.78
2022-11-16T19:31:28.735Z,4.07
2022-11-16T19:34:15.837Z,5.13
2022-11-16T19:36:42.581Z,4.07
2022-11-16T19:39:09.390Z,4.53
2022-11-16T19:41:36.213Z,3.97
2022-11-16T19:44:03.142Z,4.00
2022-11-16T19:46:33.026Z,3.75
2022-11-16T19:49:00.312Z,3.55
2022-11-16T19:51:33.301Z,4.10
2022-11-16T19:54:01.413Z,3.10
2022-11-16T19:56:29.107Z,3.33
2022-11-16T19:58:55.879Z,2.80
2022-11-16T20:01:27.699Z,2.85
2022-11-16T20:03:57.563Z,3.15
2022-11-16T20:06:28.990Z,3.15
2022-11-16T20:09:00.389Z,3.55
2022-11-16T20:11:33.983Z,3.15
2022-11-16T20:14:02.328Z,2.13
2022-11-16T20:16:38.439Z,2.97
2022-11-16T20:19:08.461Z,2.35
2022-11-16T20:21:41.213Z,3.00
2022-11-16T20:24:14.651Z,3.10
2022-11-16T20:26:45.033Z,2.90
2022-11-16T20:29:13.774Z,2.83
2022-11-16T20:31:42.756Z,3.05
2022-11-16T20:34:14.109Z,2.97
2022-11-16T20:36:43.684Z,3.10
2022-11-16T20:39:17.110Z,2.92
2022-11-16T20:41:44.358Z,2.67
2022-11-16T20:44:19.408Z,2.80
2022-11-16T20:46:46.208Z,3.33
2022-11-16T20:49:13.089Z,3.85
2022-11-16T20:51:40.388Z,3.35
2022-11-16T20:54:07.313Z,2.70
2022-11-16T20:56:34.308Z,3.50
2022-11-16T20:59:01.958Z,2.90
2022-11-16T21:01:31.379Z,2.90
2022-11-16T21:04:01.547Z,2.70
2022-11-16T21:06:28.666Z,2.60
2022-11-16T21:08:56.208Z,2.92
2022-11-16T21:11:30.384Z,2.63
2022-11-16T21:14:16.100Z,2.90
2022-11-16T21:16:43.388Z,3.08
2022-11-16T21:19:11.032Z,2.85
2022-11-16T21:21:40.331Z,2.90
2022-11-16T21:24:08.981Z,2.80
2022-11-16T21:26:37.143Z,3.13
2022-11-16T21:29:04.552Z,2.72
2022-11-16T21:31:36.390Z,3.22
2022-11-16T21:34:03.637Z,2.42
2022-11-16T21:36:32.104Z,3.20
2022-11-16T21:38:59.657Z,2.40
2022-11-16T21:41:26.893Z,2.42
2022-11-16T21:43:53.926Z,2.47
2022-11-16T21:46:26.100Z,2.95
2022-11-16T21:48:55.361Z,2.45
2022-11-16T21:51:25.190Z,2.78
2022-11-16T21:53:52.536Z,2.80
2022-11-16T21:56:22.782Z,2.85
2022-11-16T21:58:52.578Z,2.90
2022-11-16T22:01:20.222Z,2.55
2022-11-16T22:03:48.361Z,2.47
2022-11-16T22:06:35.206Z,2.50
2022-11-16T22:09:02.517Z,2.40
2022-11-16T22:11:29.311Z,2.78
2022-11-16T22:13:56.086Z,2.90
2022-11-16T22:16:23.358Z,2.60
2022-11-16T22:18:50.451Z,2.85
2022-11-16T22:21:17.413Z,2.72
2022-11-16T22:23:44.233Z,2.53
2022-11-16T22:26:13.020Z,2.88
2022-11-16T22:28:40.306Z,2.95
2022-11-16T22:31:13.237Z,2.40
2022-11-16T22:33:40.633Z,2.95
2022-11-16T22:36:09.474Z,2.70
2022-11-16T22:38:36.624Z,2.80
2022-11-16T22:41:03.599Z,2.63
2022-11-16T22:43:31.786Z,2.72
2022-11-16T22:46:05.069Z,3.25
2022-11-16T22:48:38.356Z,3.03
2022-11-16T22:51:17.952Z,3.00
2022-11-16T22:53:44.749Z,2.75
2022-11-16T22:56:11.700Z,3.35
2022-11-16T22:58:39.124Z,3.03
2022-11-16T23:01:08.220Z,2.72
2022-11-16T23:03:36.154Z,2.88
2022-11-16T23:06:04.179Z,2.80
2022-11-16T23:08:31.693Z,2.85
2022-11-16T23:11:28.661Z,3.00
2022-11-16T23:14:14.257Z,2.55
2022-11-16T23:16:42.215Z,2.80
2022-11-16T23:19:29.897Z,3.30
2022-11-16T23:22:16.027Z,3.30
2022-11-16T23:25:02.213Z,3.13
2022-11-16T23:27:56.984Z,3.85
2022-11-16T23:30:24.410Z,3.17
2022-11-16T23:32:51.645Z,3.42
2022-11-16T23:35:18.804Z,3.70
2022-11-16T23:38:04.176Z,3.97
2022-11-16T23:40:36.056Z,3.42
2022-11-16T23:43:39.031Z,4.03
2022-11-16T23:46:05.901Z,3.80
2022-11-16T23:48:32.663Z,3.75
2022-11-16T23:50:59.421Z,3.28
2022-11-16T23:53:26.199Z,3.60
2022-11-16T23:55:52.971Z,3.92
2022-11-16T23:58:19.768Z,3.80
